createdAt,value
2018-02-20T00:00:15.259Z,59.90
2018-02-20T00:02:43.621Z,67.32
2018-02-20T00:05:11.219Z,64.95
2018-02-20T00:07:38.810Z,66.90
2018-02-20T00:10:06.406Z,69.10
2018-02-20T00:12:33.994Z,72.97
2018-02-20T00:15:02.404Z,67.10
2018-02-20T00:17:29.994Z,76.78
2018-02-20T00:19:57.583Z,64.82
2018-02-20T00:22:25.172Z,67.37
2018-02-20T00:24:53.535Z,69.70
2018-02-20T00:27:21.123Z,69.55
2018-02-20T00:29:48.711Z,72.53
2018-02-20T00:32:16.298Z,68.65
2018-02-20T00:34:43.886Z,67.35
2018-02-20T00:37:11.519Z,62.65
2018-02-20T00:39:39.111Z,72.32
2018-02-20T00:42:07.502Z,66.57
2018-02-20T00:44:35.091Z,67.80
2018-02-20T00:47:03.447Z,69.30
2018-02-20T00:49:31.167Z,67.15
2018-02-20T00:51:58.753Z,71.55
2018-02-20T00:54:26.431Z,65.22
2018-02-20T00:56:54.027Z,59.55
2018-02-20T00:59:21.715Z,67.18
2018-02-20T01:01:49.330Z,66.60
2018-02-20T01:04:16.964Z,65.85
2018-02-20T01:06:44.555Z,63.00
2018-02-20T01:09:12.145Z,61.88
2018-02-20T01:11:39.730Z,67.80
2018-02-20T01:14:08.084Z,70.53
2018-02-20T01:16:35.913Z,63.80
2018-02-20T01:19:03.507Z,56.33
2018-02-20T01:21:31.096Z,57.58
2018-02-20T01:23:58.682Z,60.90
2018-02-20T01:26:27.034Z,60.75
2018-02-20T01:28:54.719Z,64.22
2018-02-20T01:31:23.067Z,55.42
2018-02-20T01:33:50.657Z,60.33
2018-02-20T01:36:18.247Z,64.60
2018-02-20T01:38:45.830Z,61.08
2018-02-20T01:41:13.419Z,67.68
2018-02-20T01:43:41.013Z,64.90
2018-02-20T01:46:08.602Z,66.45
2018-02-20T01:48:36.958Z,59.65
2018-02-20T01:51:08.412Z,64.90
2018-02-20T01:53:36.008Z,64.05
2018-02-20T01:56:03.602Z,62.28
2018-02-20T01:58:31.186Z,67.78
2018-02-20T02:00:58.771Z,65.75
2018-02-20T02:03:26.358Z,63.03
2018-02-20T02:05:54.714Z,58.30
2018-02-20T02:08:22.299Z,59.00
2018-02-20T02:10:50.650Z,58.25
2018-02-20T02:13:18.243Z,56.75
2018-02-20T02:15:46.651Z,58.28
2018-02-20T02:18:14.254Z,60.97
2018-02-20T02:20:41.842Z,70.57
2018-02-20T02:23:09.427Z,73.35
2018-02-20T02:25:37.791Z,67.62
2018-02-20T02:28:05.383Z,66.80
2018-02-20T02:30:33.734Z,64.15
2018-02-20T02:33:01.322Z,65.18
2018-02-20T02:35:28.912Z,63.55
2018-02-20T02:37:56.502Z,58.80
2018-02-20T02:40:24.084Z,57.70
2018-02-20T02:42:51.674Z,59.55
2018-02-20T02:45:20.032Z,58.30
2018-02-20T02:47:47.623Z,64.80
2018-02-20T02:50:15.214Z,65.32
2018-02-20T02:52:42.839Z,68.00
2018-02-20T02:55:10.438Z,63.53
2018-02-20T02:57:38.043Z,60.08
2018-02-20T03:00:05.652Z,60.83
2018-02-20T03:02:34.009Z,65.12
2018-02-20T03:05:01.639Z,61.78
2018-02-20T03:07:29.230Z,64.30
2018-02-20T03:09:56.830Z,55.60
2018-02-20T03:12:25.228Z,64.87
2018-02-20T03:14:52.811Z,65.80
2018-02-20T03:17:20.390Z,58.38
2018-02-20T03:19:47.990Z,59.25
2018-02-20T03:22:15.586Z,57.88
2018-02-20T03:24:43.177Z,59.63
2018-02-20T03:27:10.765Z,67.18
2018-02-20T03:29:38.350Z,62.42
2018-02-20T03:32:05.937Z,64.43
2018-02-20T03:34:34.291Z,57.28
2018-02-20T03:37:01.875Z,63.10
2018-02-20T03:39:30.230Z,63.58
2018-02-20T03:41:57.823Z,55.75
2018-02-20T03:44:25.412Z,65.78
2018-02-20T03:46:52.998Z,66.68
2018-02-20T03:49:20.586Z,72.40
2018-02-20T03:51:48.169Z,75.50
2018-02-20T03:54:15.815Z,69.05
2018-02-20T03:56:43.402Z,66.35
2018-02-20T03:59:10.990Z,65.00
2018-02-20T04:01:38.579Z,54.10
2018-02-20T04:04:06.167Z,53.72
2018-02-20T04:06:33.749Z,55.50
2018-02-20T04:09:01.334Z,67.18
2018-02-20T04:11:28.926Z,55.67
2018-02-20T04:13:56.527Z,48.92
2018-02-20T04:16:24.879Z,58.03
2018-02-20T04:18:52.467Z,49.25
2018-02-20T04:21:20.059Z,55.10
2018-02-20T04:23:47.656Z,55.03
2018-02-20T04:26:15.247Z,50.75
2018-02-20T04:28:42.883Z,47.47
2018-02-20T04:31:11.234Z,46.95
2018-02-20T04:33:38.822Z,50.78
2018-02-20T04:36:07.304Z,49.13
2018-02-20T04:38:35.671Z,54.97
2018-02-20T04:41:03.305Z,63.63
2018-02-20T04:43:30.892Z,56.63
2018-02-20T04:45:58.490Z,62.83
2018-02-20T04:48:26.838Z,51.95
2018-02-20T04:50:54.427Z,57.55
2018-02-20T04:53:22.783Z,56.08
2018-02-20T04:55:50.370Z,62.10
2018-02-20T04:58:18.722Z,59.10
2018-02-20T05:00:46.311Z,59.17
2018-02-20T05:03:13.903Z,53.72
2018-02-20T05:05:41.489Z,57.95
2018-02-20T05:08:09.079Z,50.05
2018-02-20T05:10:36.826Z,53.22
2018-02-20T05:13:04.410Z,57.78
2018-02-20T05:15:31.990Z,58.90
2018-02-20T05:17:59.581Z,70.20
2018-02-20T05:20:27.967Z,67.53
2018-02-20T05:22:56.320Z,67.35
2018-02-20T05:25:23.910Z,69.45
2018-02-20T05:27:52.262Z,63.60
2018-02-20T05:30:19.846Z,76.40
2018-02-20T05:32:47.435Z,68.12
2018-02-20T05:35:15.043Z,66.35
2018-02-20T05:37:42.630Z,63.80
2018-02-20T05:40:10.228Z,57.53
2018-02-20T05:42:37.819Z,60.03
2018-02-20T05:45:05.407Z,70.90
2018-02-20T05:47:32.990Z,81.05
2018-02-20T05:50:00.579Z,60.53
2018-02-20T05:52:28.926Z,82.30
2018-02-20T05:54:56.522Z,61.20
2018-02-20T05:57:24.871Z,63.63
2018-02-20T05:59:52.459Z,57.22
2018-02-20T06:02:20.051Z,57.42
2018-02-20T06:04:47.663Z,56.95
2018-02-20T06:07:15.250Z,59.97
2018-02-20T06:09:42.889Z,54.08
2018-02-20T06:12:10.483Z,54.28
2018-02-20T06:14:38.072Z,61.70
2018-02-20T06:17:05.662Z,65.97
2018-02-20T06:19:33.250Z,67.53
2018-02-20T06:22:00.881Z,62.13
2018-02-20T06:24:28.536Z,52.80
2018-02-20T06:26:56.122Z,54.90
2018-02-20T06:29:23.711Z,68.75
2018-02-20T06:31:51.302Z,51.80
2018-02-20T06:34:18.887Z,59.30
2018-02-20T06:36:47.287Z,56.53
2018-02-20T06:39:14.874Z,60.15
2018-02-20T06:41:42.459Z,63.35
2018-02-20T06:44:10.063Z,57.90
2018-02-20T06:46:38.414Z,63.25
2018-02-20T06:49:06.002Z,60.78
2018-02-20T06:51:34.363Z,83.95
2018-02-20T06:54:01.951Z,62.42
2018-02-20T06:56:30.351Z,73.43
2018-02-20T06:58:58.733Z,66.60
2018-02-20T07:01:26.323Z,65.93
2018-02-20T07:03:53.906Z,80.22
2018-02-20T07:06:21.490Z,67.20
2018-02-20T07:08:49.135Z,65.40
2018-02-20T07:11:16.718Z,63.80
2018-02-20T07:13:44.307Z,65.70
2018-02-20T07:16:12.654Z,58.03
2018-02-20T07:18:40.242Z,72.65
2018-02-20T07:21:07.832Z,64.62
2018-02-20T07:23:35.424Z,68.53
2018-02-20T07:26:03.006Z,65.78
2018-02-20T07:28:30.590Z,66.03
2018-02-20T07:30:58.179Z,65.70
2018-02-20T07:33:26.526Z,74.22
2018-02-20T07:35:54.114Z,67.15
2018-02-20T07:38:22.467Z,62.78
2018-02-20T07:40:50.054Z,60.15
2018-02-20T07:43:17.642Z,70.95
2018-02-20T07:45:46.001Z,73.40
2018-02-20T07:48:13.582Z,62.15
2018-02-20T07:50:41.934Z,58.00
2018-02-20T07:53:09.523Z,65.78
2018-02-20T07:55:37.880Z,62.65
2018-02-20T07:58:05.470Z,69.18
2018-02-20T08:00:33.825Z,75.22
2018-02-20T08:03:01.415Z,77.65
2018-02-20T08:05:29.822Z,71.43
2018-02-20T08:07:58.150Z,69.75
2018-02-20T08:10:25.744Z,60.10
2018-02-20T08:12:54.101Z,61.50
2018-02-20T08:15:21.686Z,57.62
2018-02-20T08:17:49.291Z,59.45
2018-02-20T08:20:16.878Z,64.97
2018-02-20T08:22:45.238Z,61.70
2018-02-20T08:25:12.818Z,60.55
2018-02-20T08:27:40.397Z,65.15
2018-02-20T08:30:07.994Z,56.33
2018-02-20T08:32:36.347Z,62.50
2018-02-20T08:35:03.974Z,44.97
2018-02-20T08:37:31.554Z,60.05
2018-02-20T08:39:59.139Z,50.00
2018-02-20T08:42:26.764Z,47.40
2018-02-20T08:44:55.151Z,44.75
2018-02-20T08:47:22.739Z,48.67
2018-02-20T08:49:50.373Z,52.60
2018-02-20T08:52:17.954Z,54.17
2018-02-20T08:54:45.538Z,51.78
2018-02-20T08:57:13.114Z,56.15
2018-02-20T08:59:40.697Z,48.42
2018-02-20T09:02:08.282Z,50.15
2018-02-20T09:04:36.631Z,54.33
2018-02-20T09:07:04.210Z,64.03
2018-02-20T09:09:31.799Z,48.72
2018-02-20T09:12:00.143Z,53.22
2018-02-20T09:14:27.723Z,63.05
2018-02-20T09:16:55.302Z,52.50
2018-02-20T09:19:23.655Z,54.35
2018-02-20T09:21:51.274Z,70.95
2018-02-20T09:24:18.848Z,45.20
2018-02-20T09:26:46.447Z,42.92
2018-02-20T09:29:14.031Z,46.97
2018-02-20T09:31:41.614Z,51.88
2018-02-20T09:34:09.971Z,53.87
2018-02-20T09:36:37.554Z,44.90
2018-02-20T09:39:05.902Z,46.53
2018-02-20T09:41:33.492Z,50.60
2018-02-20T09:44:01.079Z,48.67
2018-02-20T09:46:29.432Z,45.85
2018-02-20T09:48:57.023Z,48.60
2018-02-20T09:51:25.367Z,49.88
2018-02-20T09:53:52.948Z,51.65
2018-02-20T09:56:20.535Z,52.72
2018-02-20T09:58:48.888Z,54.72
2018-02-20T10:01:16.475Z,52.45
2018-02-20T10:03:44.818Z,51.78
2018-02-20T10:06:13.163Z,54.97
2018-02-20T10:08:40.746Z,61.65
2018-02-20T10:11:08.328Z,61.17
2018-02-20T10:13:35.906Z,57.80
2018-02-20T10:16:03.483Z,57.83
2018-02-20T10:18:31.070Z,59.65
2018-02-20T10:20:58.655Z,57.97
2018-02-20T10:23:26.238Z,68.55
2018-02-20T10:25:53.815Z,49.67
2018-02-20T10:28:21.394Z,53.22
2018-02-20T10:30:48.980Z,59.92
2018-02-20T10:33:17.329Z,65.68
2018-02-20T10:35:44.915Z,69.87
2018-02-20T10:38:12.514Z,60.22
2018-02-20T10:40:40.142Z,58.17
2018-02-20T10:43:07.757Z,72.65
2018-02-20T10:45:35.369Z,61.37
2018-02-20T10:48:02.990Z,65.10
2018-02-20T10:50:30.599Z,66.75
2018-02-20T10:52:58.213Z,65.60
2018-02-20T10:55:25.822Z,85.85
2018-02-20T10:57:53.426Z,93.28
2018-02-20T11:00:21.798Z,86.45
2018-02-20T11:02:50.199Z,78.62
2018-02-20T11:05:17.814Z,85.25
2018-02-20T11:07:45.441Z,91.45
2018-02-20T11:10:13.050Z,91.57
2018-02-20T11:12:40.660Z,91.70
2018-02-20T11:15:08.330Z,91.10
2018-02-20T11:17:35.938Z,91.87
2018-02-20T11:20:03.559Z,100.25
2018-02-20T11:22:31.681Z,108.95
2018-02-20T11:24:59.294Z,102.20
2018-02-20T11:27:27.671Z,100.03
2018-02-20T11:29:56.045Z,104.20
2018-02-20T11:32:24.419Z,98.10
2018-02-20T11:34:52.030Z,106.00
2018-02-20T11:37:19.638Z,111.03
2018-02-20T11:39:47.250Z,114.35
2018-02-20T11:42:14.866Z,113.35
2018-02-20T11:44:42.491Z,122.93
2018-02-20T11:47:10.108Z,126.45
2018-02-20T11:49:37.739Z,122.70
2018-02-20T11:52:05.402Z,127.85
2018-02-20T11:54:33.010Z,124.55
2018-02-20T11:57:00.632Z,122.90
2018-02-20T11:59:28.243Z,129.85
2018-02-20T12:01:55.858Z,130.95
2018-02-20T12:04:23.504Z,154.87
2018-02-20T12:06:51.118Z,123.75
2018-02-20T12:09:18.742Z,131.00
2018-02-20T12:11:46.349Z,124.15
2018-02-20T12:14:13.972Z,116.45
2018-02-20T12:16:41.592Z,160.10
2018-02-20T12:19:09.229Z,137.55
2018-02-20T12:21:36.850Z,136.85
2018-02-20T12:24:05.243Z,133.77
2018-02-20T12:26:32.863Z,131.07
2018-02-20T12:29:00.526Z,116.62
2018-02-20T12:31:29.642Z,119.22
2018-02-20T12:33:57.254Z,113.97
2018-02-20T12:36:24.933Z,128.50
2018-02-20T12:38:52.544Z,158.27
2018-02-20T12:41:20.167Z,147.95
2018-02-20T12:43:47.782Z,149.85
2018-02-20T12:46:16.182Z,160.40
2018-02-20T12:48:43.790Z,149.52
2018-02-20T12:51:11.399Z,144.35
2018-02-20T12:53:39.798Z,147.98
2018-02-20T12:56:07.419Z,131.73
2018-02-20T12:58:35.029Z,134.98
2018-02-20T13:01:02.650Z,147.82
2018-02-20T13:03:30.258Z,130.52
2018-02-20T13:05:57.930Z,107.80
2018-02-20T13:08:25.551Z,105.53
2018-02-20T13:10:53.297Z,105.78
2018-02-20T13:13:20.938Z,99.03
2018-02-20T13:15:48.550Z,96.40
2018-02-20T13:18:16.160Z,95.70
2018-02-20T13:20:43.766Z,91.43
2018-02-20T13:23:11.371Z,89.10
2018-02-20T13:25:39.751Z,93.93
2018-02-20T13:28:08.137Z,108.12
2018-02-20T13:30:36.511Z,92.50
2018-02-20T13:33:04.123Z,89.45
2018-02-20T13:35:31.743Z,79.82
2018-02-20T13:38:00.119Z,76.60
2018-02-20T13:40:27.740Z,79.35
2018-02-20T13:42:55.394Z,90.93
2018-02-20T13:45:23.002Z,78.53
2018-02-20T13:47:50.619Z,78.80
2018-02-20T13:50:18.230Z,67.95
2018-02-20T13:52:45.842Z,67.05
2018-02-20T13:55:13.470Z,83.20
2018-02-20T13:57:41.074Z,92.00
2018-02-20T14:00:08.684Z,80.53
2018-02-20T14:02:36.296Z,84.03
2018-02-20T14:05:03.915Z,91.28
2018-02-20T14:07:31.525Z,86.05
2018-02-20T14:10:09.883Z,92.72
2018-02-20T14:12:37.493Z,101.12
2018-02-20T14:15:05.878Z,102.53
2018-02-20T14:17:34.249Z,105.12
2018-02-20T14:20:02.628Z,94.55
2018-02-20T14:22:30.878Z,99.45
2018-02-20T14:24:58.575Z,95.65
2018-02-20T14:27:26.205Z,91.07
2018-02-20T14:29:53.813Z,99.22
2018-02-20T14:32:22.193Z,96.68
2018-02-20T14:34:50.583Z,100.18
2018-02-20T14:37:18.959Z,90.65
2018-02-20T14:39:46.586Z,82.93
2018-02-20T14:42:14.201Z,80.95
2018-02-20T14:44:42.599Z,79.85
2018-02-20T14:47:10.215Z,89.15
2018-02-20T14:49:37.827Z,84.25
2018-02-20T14:52:05.438Z,78.60
2018-02-20T14:54:33.054Z,82.00
2018-02-20T14:57:01.435Z,80.78
2018-02-20T14:59:29.083Z,78.65
2018-02-20T15:01:58.302Z,71.35
2018-02-20T15:04:26.687Z,80.90
2018-02-20T15:06:54.349Z,88.45
2018-02-20T15:09:22.722Z,76.03
2018-02-20T15:11:51.098Z,80.95
2018-02-20T15:14:18.702Z,70.85
2018-02-20T15:16:46.314Z,77.07
2018-02-20T15:19:13.927Z,72.65
2018-02-20T15:21:41.539Z,81.90
2018-02-20T15:24:09.147Z,76.75
2018-02-20T15:26:36.754Z,79.10
2018-02-20T15:29:04.358Z,67.55
2018-02-20T15:31:32.879Z,76.37
2018-02-20T15:34:00.503Z,84.95
2018-02-20T15:36:28.119Z,82.12
2018-02-20T15:38:55.727Z,78.62
2018-02-20T15:41:23.335Z,85.90
2018-02-20T15:43:51.002Z,77.95
2018-02-20T15:46:18.619Z,75.82
2018-02-20T15:48:46.296Z,68.47
2018-02-20T15:51:13.927Z,74.43
2018-02-20T15:53:41.536Z,73.30
2018-02-20T15:56:09.159Z,71.43
2018-02-20T15:58:36.769Z,83.60
2018-02-20T16:01:05.150Z,77.53
2018-02-20T16:03:32.759Z,79.82
2018-02-20T16:06:00.384Z,73.75
2018-02-20T16:08:28.765Z,79.03
2018-02-20T16:10:56.378Z,95.25
2018-02-20T16:13:23.994Z,79.25
2018-02-20T16:15:55.015Z,78.65
2018-02-20T16:18:22.646Z,79.53
2018-02-20T16:20:50.264Z,84.40
2018-02-20T16:23:17.955Z,73.68
2018-02-20T16:25:45.563Z,77.78
2018-02-20T16:28:13.182Z,85.95
2018-02-20T16:30:40.860Z,74.45
2018-02-20T16:33:08.477Z,78.68
2018-02-20T16:35:36.082Z,76.20
2018-02-20T16:38:03.720Z,76.45
2018-02-20T16:40:31.341Z,97.47
2018-02-20T16:42:58.950Z,79.50
2018-02-20T16:45:26.563Z,73.32
2018-02-20T16:47:54.179Z,95.78
2018-02-20T16:50:21.798Z,82.82
2018-02-20T16:52:49.406Z,87.05
2018-02-20T16:55:17.024Z,92.95
2018-02-20T16:57:44.645Z,81.82
2018-02-20T17:00:12.267Z,94.30
2018-02-20T17:02:39.880Z,86.68
2018-02-20T17:05:08.266Z,105.70
2018-02-20T17:07:36.699Z,101.38
2018-02-20T17:10:04.314Z,94.20
2018-02-20T17:12:32.686Z,87.95
2018-02-20T17:15:00.364Z,89.30
2018-02-20T17:17:28.746Z,94.15
2018-02-20T17:19:57.127Z,97.32
2018-02-20T17:22:25.510Z,86.85
2018-02-20T17:24:53.127Z,91.05
2018-02-20T17:27:20.739Z,85.50
2018-02-20T17:29:48.356Z,71.82
2018-02-20T17:32:15.975Z,65.62
2018-02-20T17:34:44.354Z,92.93
2018-02-20T17:37:11.967Z,76.18
2018-02-20T17:39:39.582Z,81.60
2018-02-20T17:42:07.193Z,81.87
2018-02-20T17:44:34.834Z,77.47
2018-02-20T17:47:03.214Z,81.05
2018-02-20T17:49:30.827Z,71.20
2018-02-20T17:51:58.446Z,80.70
2018-02-20T17:54:26.826Z,74.62
2018-02-20T17:56:55.207Z,77.95
2018-02-20T17:59:23.590Z,70.87
2018-02-20T18:01:51.972Z,70.90
2018-02-20T18:04:20.346Z,75.75
2018-02-20T18:06:48.726Z,80.28
2018-02-20T18:09:16.340Z,79.70
2018-02-20T18:11:43.958Z,76.40
2018-02-20T18:14:12.447Z,71.53
2018-02-20T18:16:40.043Z,81.82
2018-02-20T18:19:07.654Z,82.70
2018-02-20T18:21:35.266Z,85.20
2018-02-20T18:24:02.919Z,76.57
2018-02-20T18:26:30.531Z,76.75
2018-02-20T18:28:58.180Z,75.60
2018-02-20T18:31:25.790Z,80.62
2018-02-20T18:33:53.403Z,77.10
2018-02-20T18:36:21.018Z,83.25
2018-02-20T18:38:48.634Z,81.47
2018-02-20T18:41:16.256Z,83.18
2018-02-20T18:43:43.870Z,83.65
2018-02-20T18:46:11.490Z,87.88
2018-02-20T18:48:39.119Z,80.38
2018-02-20T18:51:06.783Z,82.00
2018-02-20T18:53:34.399Z,85.20
2018-02-20T18:56:02.043Z,98.15
2018-02-20T18:58:29.659Z,88.95
2018-02-20T19:00:57.278Z,95.45
2018-02-20T19:03:24.894Z,92.25
2018-02-20T19:05:52.511Z,91.53
2018-02-20T19:08:20.186Z,85.85
2018-02-20T19:10:47.774Z,86.85
2018-02-20T19:13:15.390Z,80.60
2018-02-20T19:15:43.006Z,85.55
2018-02-20T19:18:10.618Z,97.15
2018-02-20T19:20:38.234Z,93.28
2018-02-20T19:23:05.963Z,94.60
2018-02-20T19:25:33.842Z,85.32
2018-02-20T19:28:02.288Z,95.25
2018-02-20T19:30:29.902Z,112.43
2018-02-20T19:32:58.277Z,96.97
2018-02-20T19:35:25.922Z,101.60
2018-02-20T19:37:53.537Z,89.55
2018-02-20T19:40:21.170Z,110.05
2018-02-20T19:42:48.787Z,93.22
2018-02-20T19:45:16.411Z,99.37
2018-02-20T19:47:44.070Z,109.80
2018-02-20T19:50:11.696Z,109.87
2018-02-20T19:52:39.310Z,93.50
2018-02-20T19:55:06.954Z,99.45
2018-02-20T19:57:34.563Z,98.25
2018-02-20T20:00:02.227Z,96.97
2018-02-20T20:02:29.842Z,99.53
2018-02-20T20:04:57.566Z,102.68
2018-02-20T20:07:25.227Z,105.68
2018-02-20T20:09:53.678Z,97.40
2018-02-20T20:12:21.318Z,102.97
2018-02-20T20:14:48.930Z,110.68
2018-02-20T20:17:17.403Z,97.03
2018-02-20T20:19:45.799Z,103.43
2018-02-20T20:22:14.183Z,95.90
2018-02-20T20:24:41.826Z,99.22
2018-02-20T20:27:09.443Z,104.95
2018-02-20T20:29:37.071Z,94.62
2018-02-20T20:32:05.453Z,98.50
2018-02-20T20:34:33.834Z,95.62
2018-02-20T20:37:01.451Z,100.03
2018-02-20T20:39:29.074Z,97.60
2018-02-20T20:41:56.699Z,105.68
2018-02-20T20:44:24.319Z,106.05
2018-02-20T20:46:51.940Z,124.28
2018-02-20T20:49:19.574Z,102.53
2018-02-20T20:51:47.192Z,106.87
2018-02-20T20:54:14.858Z,106.47
2018-02-20T20:56:42.600Z,106.85
2018-02-20T20:59:10.215Z,107.10
2018-02-20T21:01:37.858Z,119.70
2018-02-20T21:04:05.484Z,105.50
2018-02-20T21:06:33.099Z,111.25
2018-02-20T21:09:01.499Z,106.93
2018-02-20T21:11:29.142Z,112.53
2018-02-20T21:13:57.530Z,100.95
2018-02-20T21:16:25.913Z,106.55
2018-02-20T21:18:53.663Z,102.32
2018-02-20T21:21:21.282Z,109.57
2018-02-20T21:23:48.902Z,107.12
2018-02-20T21:26:16.536Z,107.43
2018-02-20T21:28:44.146Z,116.97
2018-02-20T21:31:12.527Z,106.32
2018-02-20T21:33:40.954Z,106.60
2018-02-20T21:36:08.572Z,111.68
2018-02-20T21:38:36.954Z,110.10
2018-02-20T21:41:05.366Z,112.20
2018-02-20T21:43:32.987Z,115.53
2018-02-20T21:46:00.607Z,127.20
2018-02-20T21:48:28.220Z,113.55
2018-02-20T21:50:55.845Z,105.20
2018-02-20T21:53:23.471Z,111.88
2018-02-20T21:55:51.855Z,100.65
2018-02-20T21:58:20.233Z,93.55
2018-02-20T22:00:47.851Z,107.50
2018-02-20T22:03:15.513Z,108.93
2018-02-20T22:05:43.142Z,107.47
2018-02-20T22:08:11.529Z,111.53
2018-02-20T22:10:39.315Z,117.90
2018-02-20T22:13:06.938Z,119.78
2018-02-20T22:15:35.324Z,103.25
2018-02-20T22:18:02.986Z,104.63
2018-02-20T22:20:30.618Z,102.45
2018-02-20T22:22:58.239Z,114.03
2018-02-20T22:25:25.883Z,102.68
2018-02-20T22:27:53.543Z,122.43
2018-02-20T22:30:21.171Z,94.60
2018-02-20T22:32:48.795Z,100.97
2018-02-20T22:35:17.182Z,112.62
2018-02-20T22:37:45.563Z,106.20
2018-02-20T22:40:13.192Z,105.25
2018-02-20T22:42:40.810Z,101.30
2018-02-20T22:45:08.429Z,119.35
2018-02-20T22:47:36.046Z,120.35
2018-02-20T22:50:03.679Z,96.10
2018-02-20T22:52:32.928Z,97.55
2018-02-20T22:55:00.551Z,102.78
2018-02-20T22:57:28.297Z,109.15
2018-02-20T22:59:55.914Z,105.25
2018-02-20T23:02:23.534Z,103.28
2018-02-20T23:04:51.146Z,98.15
2018-02-20T23:07:18.791Z,96.75
2018-02-20T23:09:47.175Z,105.15
2018-02-20T23:12:15.578Z,104.47
2018-02-20T23:14:43.202Z,106.85
2018-02-20T23:17:10.816Z,97.62
2018-02-20T23:19:38.439Z,215.25
2018-02-20T23:22:06.087Z,120.75
2018-02-20T23:24:33.715Z,106.28
2018-02-20T23:27:01.330Z,104.32
2018-02-20T23:29:28.946Z,107.80
2018-02-20T23:31:56.574Z,104.32
2018-02-20T23:34:24.240Z,101.12
2018-02-20T23:36:52.622Z,107.82
2018-02-20T23:39:20.252Z,114.03
2018-02-20T23:41:48.703Z,118.43
2018-02-20T23:44:16.327Z,112.18
2018-02-20T23:46:43.951Z,100.78
2018-02-20T23:49:11.607Z,123.93
2018-02-20T23:51:39.232Z,97.28
2018-02-20T23:54:07.611Z,103.07
2018-02-20T23:56:35.279Z,118.75
2018-02-20T23:59:02.899Z,114.57
